sensor_id;sensor_type;location;lat;lon;timestamp;P1;durP1;ratioP1;P2;durP2;ratioP2
6394;SDS011;3230;42.588;23.358;2024-01-15T00:01:07;11.47;;;4.60;;
6394;SDS011;3230;42.588;23.358;2024-01-15T00:03:33;7.67;;;4.17;;
6394;SDS011;3230;42.588;23.358;2024-01-15T00:05:58;7.00;;;3.17;;
6394;SDS011;3230;42.588;23.358;2024-01-15T00:08:23;6.73;;;3.97;;
6394;SDS011;3230;42.588;23.358;2024-01-15T00:10:49;11.13;;;5.67;;
6394;SDS011;3230;42.588;23.358;2024-01-15T00:13:14;7.43;;;3.67;;
6394;SDS011;3230;42.588;23.358;2024-01-15T00:15:40;13.67;;;5.10;;
6394;SDS011;3230;42.588;23.358;2024-01-15T00:18:05;6.67;;;3.37;;
6394;SDS011;3230;42.588;23.358;2024-01-15T00:20:31;2.00;;;1.83;;
6394;SDS011;3230;42.588;23.358;2024-01-15T00:22:56;5.23;;;2.70;;
6394;SDS011;3230;42.588;23.358;2024-01-15T00:25:22;3.80;;;2.50;;
6394;SDS011;3230;42.588;23.358;2024-01-15T00:27:47;3.47;;;1.90;;
6394;SDS011;3230;42.588;23.358;2024-01-15T00:30:13;13.47;;;5.70;;
6394;SDS011;3230;42.588;23.358;2024-01-15T00:32:39;13.77;;;5.77;;
6394;SDS011;3230;42.588;23.358;2024-01-15T00:35:04;13.00;;;4.30;;
6394;SDS011;3230;42.588;23.358;2024-01-15T00:37:30;2.23;;;1.83;;
6394;SDS011;3230;42.588;23.358;2024-01-15T00:39:55;3.93;;;2.20;;
6394;SDS011;3230;42.588;23.358;2024-01-15T00:42:20;6.87;;;2.80;;
6394;SDS011;3230;42.588;23.358;2024-01-15T00:44:46;11.03;;;3.67;;
6394;SDS011;3230;42.588;23.358;2024-01-15T00:47:11;8.20;;;4.53;;
6394;SDS011;3230;42.588;23.358;2024-01-15T00:49:37;14.70;;;5.43;;
6394;SDS011;3230;42.588;23.358;2024-01-15T00:52:02;12.93;;;4.90;;
6394;SDS011;3230;42.588;23.358;2024-01-15T00:54:28;13.40;;;4.30;;
6394;SDS011;3230;42.588;23.358;2024-01-15T00:56:53;8.20;;;4.20;;
6394;SDS011;3230;42.588;23.358;2024-01-15T00:59:19;10.10;;;4.15;;
6394;SDS011;3230;42.588;23.358;2024-01-15T01:01:45;10.70;;;4.30;;
6394;SDS011;3230;42.588;23.358;2024-01-15T01:04:11;13.47;;;5.77;;
6394;SDS011;3230;42.588;23.358;2024-01-15T01:06:37;16.43;;;5.20;;
6394;SDS011;3230;42.588;23.358;2024-01-15T01:09:02;12.10;;;5.33;;
6394;SDS011;3230;42.588;23.358;2024-01-15T01:11:28;10.27;;;4.20;;
6394;SDS011;3230;42.588;23.358;2024-01-15T01:13:54;6.23;;;3.73;;
6394;SDS011;3230;42.588;23.358;2024-01-15T01:16:19;21.90;;;8.60;;
6394;SDS011;3230;42.588;23.358;2024-01-15T01:18:44;15.00;;;4.50;;
6394;SDS011;3230;42.588;23.358;2024-01-15T01:21:10;5.33;;;3.27;;
6394;SDS011;3230;42.588;23.358;2024-01-15T01:23:35;11.00;;;4.47;;
6394;SDS011;3230;42.588;23.358;2024-01-15T01:26:01;8.40;;;4.07;;
6394;SDS011;3230;42.588;23.358;2024-01-15T01:28:27;6.03;;;3.40;;
6394;SDS011;3230;42.588;23.358;2024-01-15T01:30:53;9.50;;;4.03;;
6394;SDS011;3230;42.588;23.358;2024-01-15T01:33:19;11.60;;;4.73;;
6394;SDS011;3230;42.588;23.358;2024-01-15T01:35:45;13.18;;;3.33;;
6394;SDS011;3230;42.588;23.358;2024-01-15T01:38:11;5.35;;;2.72;;
6394;SDS011;3230;42.588;23.358;2024-01-15T01:40:37;11.10;;;3.93;;
6394;SDS011;3230;42.588;23.358;2024-01-15T01:43:03;10.80;;;5.00;;
6394;SDS011;3230;42.588;23.358;2024-01-15T01:45:30;8.30;;;4.25;;
6394;SDS011;3230;42.588;23.358;2024-01-15T01:47:55;13.60;;;5.03;;
6394;SDS011;3230;42.588;23.358;2024-01-15T01:50:21;9.53;;;4.60;;
6394;SDS011;3230;42.588;23.358;2024-01-15T01:52:46;23.13;;;6.23;;
6394;SDS011;3230;42.588;23.358;2024-01-15T01:55:13;9.57;;;5.18;;
6394;SDS011;3230;42.588;23.358;2024-01-15T01:57:39;17.58;;;5.93;;
6394;SDS011;3230;42.588;23.358;2024-01-15T02:00:06;9.25;;;4.25;;
6394;SDS011;3230;42.588;23.358;2024-01-15T02:02:32;10.18;;;4.50;;
6394;SDS011;3230;42.588;23.358;2024-01-15T02:04:57;10.93;;;5.10;;
6394;SDS011;3230;42.588;23.358;2024-01-15T02:07:23;7.43;;;4.53;;
6394;SDS011;3230;42.588;23.358;2024-01-15T02:09:49;16.43;;;5.50;;
6394;SDS011;3230;42.588;23.358;2024-01-15T02:12:15;12.77;;;5.65;;
6394;SDS011;3230;42.588;23.358;2024-01-15T02:14:40;10.73;;;5.00;;
6394;SDS011;3230;42.588;23.358;2024-01-15T02:17:06;13.40;;;5.73;;
6394;SDS011;3230;42.588;23.358;2024-01-15T02:19:31;6.77;;;3.80;;
6394;SDS011;3230;42.588;23.358;2024-01-15T02:21:57;9.23;;;4.43;;
6394;SDS011;3230;42.588;23.358;2024-01-15T02:24:22;25.23;;;9.30;;
6394;SDS011;3230;42.588;23.358;2024-01-15T02:26:48;19.43;;;7.50;;
6394;SDS011;3230;42.588;23.358;2024-01-15T02:29:14;17.25;;;6.07;;
6394;SDS011;3230;42.588;23.358;2024-01-15T02:31:40;12.90;;;5.10;;
6394;SDS011;3230;42.588;23.358;2024-01-15T02:34:05;18.13;;;6.50;;
6394;SDS011;3230;42.588;23.358;2024-01-15T02:36:31;11.83;;;5.70;;
6394;SDS011;3230;42.588;23.358;2024-01-15T02:38:59;15.90;;;6.43;;
6394;SDS011;3230;42.588;23.358;2024-01-15T02:41:25;15.03;;;6.33;;
6394;SDS011;3230;42.588;23.358;2024-01-15T02:43:50;8.77;;;4.93;;
6394;SDS011;3230;42.588;23.358;2024-01-15T02:46:16;7.77;;;4.40;;
6394;SDS011;3230;42.588;23.358;2024-01-15T02:48:41;5.23;;;2.77;;
6394;SDS011;3230;42.588;23.358;2024-01-15T02:51:07;3.83;;;2.20;;
6394;SDS011;3230;42.588;23.358;2024-01-15T02:53:33;4.50;;;2.50;;
6394;SDS011;3230;42.588;23.358;2024-01-15T02:55:59;2.20;;;1.90;;
6394;SDS011;3230;42.588;23.358;2024-01-15T02:58:24;6.10;;;2.33;;
6394;SDS011;3230;42.588;23.358;2024-01-15T03:00:49;13.77;;;5.50;;
6394;SDS011;3230;42.588;23.358;2024-01-15T03:03:15;20.47;;;7.00;;
6394;SDS011;3230;42.588;23.358;2024-01-15T03:05:40;14.57;;;6.47;;
6394;SDS011;3230;42.588;23.358;2024-01-15T03:08:06;24.97;;;9.47;;
6394;SDS011;3230;42.588;23.358;2024-01-15T03:10:31;16.57;;;6.23;;
6394;SDS011;3230;42.588;23.358;2024-01-15T03:12:58;15.20;;;6.83;;
6394;SDS011;3230;42.588;23.358;2024-01-15T03:15:24;5.63;;;2.05;;
6394;SDS011;3230;42.588;23.358;2024-01-15T03:17:49;6.87;;;3.10;;
6394;SDS011;3230;42.588;23.358;2024-01-15T03:20:14;5.53;;;3.03;;
6394;SDS011;3230;42.588;23.358;2024-01-15T03:22:40;8.00;;;3.00;;
6394;SDS011;3230;42.588;23.358;2024-01-15T03:25:06;6.57;;;3.40;;
6394;SDS011;3230;42.588;23.358;2024-01-15T03:27:31;8.97;;;3.40;;
6394;SDS011;3230;42.588;23.358;2024-01-15T03:29:57;7.20;;;3.63;;
6394;SDS011;3230;42.588;23.358;2024-01-15T03:32:22;6.10;;;3.50;;
6394;SDS011;3230;42.588;23.358;2024-01-15T03:34:48;8.70;;;3.60;;
6394;SDS011;3230;42.588;23.358;2024-01-15T03:37:13;6.53;;;3.10;;
6394;SDS011;3230;42.588;23.358;2024-01-15T03:39:40;11.52;;;5.45;;
6394;SDS011;3230;42.588;23.358;2024-01-15T03:42:06;17.20;;;7.43;;
6394;SDS011;3230;42.588;23.358;2024-01-15T03:44:31;19.33;;;7.47;;
6394;SDS011;3230;42.588;23.358;2024-01-15T03:46:57;19.33;;;8.33;;
6394;SDS011;3230;42.588;23.358;2024-01-15T03:49:23;14.90;;;5.97;;
6394;SDS011;3230;42.588;23.358;2024-01-15T03:51:48;9.67;;;4.30;;
6394;SDS011;3230;42.588;23.358;2024-01-15T03:54:13;10.07;;;4.40;;
6394;SDS011;3230;42.588;23.358;2024-01-15T03:56:39;12.83;;;4.60;;
6394;SDS011;3230;42.588;23.358;2024-01-15T03:59:04;8.90;;;4.33;;
6394;SDS011;3230;42.588;23.358;2024-01-15T04:01:30;6.80;;;4.03;;
6394;SDS011;3230;42.588;23.358;2024-01-15T04:03:55;6.10;;;3.93;;
6394;SDS011;3230;42.588;23.358;2024-01-15T04:06:20;10.83;;;4.17;;
6394;SDS011;3230;42.588;23.358;2024-01-15T04:08:46;20.40;;;4.57;;
6394;SDS011;3230;42.588;23.358;2024-01-15T04:11:18;6.13;;;3.00;;
6394;SDS011;3230;42.588;23.358;2024-01-15T04:13:43;16.48;;;3.90;;
6394;SDS011;3230;42.588;23.358;2024-01-15T04:16:09;9.33;;;4.00;;
6394;SDS011;3230;42.588;23.358;2024-01-15T04:18:34;8.73;;;4.33;;
6394;SDS011;3230;42.588;23.358;2024-01-15T04:21:00;8.67;;;4.47;;
6394;SDS011;3230;42.588;23.358;2024-01-15T04:23:25;10.90;;;5.67;;
6394;SDS011;3230;42.588;23.358;2024-01-15T04:25:50;29.07;;;14.70;;
6394;SDS011;3230;42.588;23.358;2024-01-15T04:28:16;12.70;;;6.00;;
6394;SDS011;3230;42.588;23.358;2024-01-15T04:30:41;7.90;;;4.90;;
6394;SDS011;3230;42.588;23.358;2024-01-15T04:33:07;9.80;;;4.80;;
6394;SDS011;3230;42.588;23.358;2024-01-15T04:35:32;11.67;;;4.70;;
6394;SDS011;3230;42.588;23.358;2024-01-15T04:37:58;8.23;;;4.60;;
6394;SDS011;3230;42.588;23.358;2024-01-15T04:40:23;7.33;;;4.50;;
6394;SDS011;3230;42.588;23.358;2024-01-15T04:42:48;8.07;;;4.37;;
6394;SDS011;3230;42.588;23.358;2024-01-15T04:45:14;7.47;;;4.30;;
6394;SDS011;3230;42.588;23.358;2024-01-15T04:47:39;14.97;;;4.50;;
6394;SDS011;3230;42.588;23.358;2024-01-15T04:50:05;11.30;;;4.57;;
6394;SDS011;3230;42.588;23.358;2024-01-15T04:52:31;15.20;;;6.23;;
6394;SDS011;3230;42.588;23.358;2024-01-15T04:54:56;14.80;;;6.97;;
6394;SDS011;3230;42.588;23.358;2024-01-15T04:57:22;10.30;;;4.90;;
6394;SDS011;3230;42.588;23.358;2024-01-15T04:59:47;19.83;;;5.23;;
6394;SDS011;3230;42.588;23.358;2024-01-15T05:02:13;11.83;;;5.10;;
6394;SDS011;3230;42.588;23.358;2024-01-15T05:04:38;7.93;;;4.10;;
6394;SDS011;3230;42.588;23.358;2024-01-15T05:07:04;6.10;;;3.43;;
6394;SDS011;3230;42.588;23.358;2024-01-15T05:09:29;8.53;;;4.37;;
6394;SDS011;3230;42.588;23.358;2024-01-15T05:11:55;13.80;;;6.13;;
6394;SDS011;3230;42.588;23.358;2024-01-15T05:14:20;19.70;;;9.37;;
6394;SDS011;3230;42.588;23.358;2024-01-15T05:16:49;22.13;;;9.90;;
6394;SDS011;3230;42.588;23.358;2024-01-15T05:19:14;26.00;;;8.63;;
6394;SDS011;3230;42.588;23.358;2024-01-15T05:21:40;24.87;;;8.80;;
6394;SDS011;3230;42.588;23.358;2024-01-15T05:24:06;20.53;;;7.87;;
6394;SDS011;3230;42.588;23.358;2024-01-15T05:26:31;10.10;;;5.33;;
6394;SDS011;3230;42.588;23.358;2024-01-15T05:28:57;9.30;;;4.10;;
6394;SDS011;3230;42.588;23.358;2024-01-15T05:31:22;8.10;;;4.20;;
6394;SDS011;3230;42.588;23.358;2024-01-15T05:33:48;6.30;;;3.90;;
6394;SDS011;3230;42.588;23.358;2024-01-15T05:36:13;6.80;;;3.87;;
6394;SDS011;3230;42.588;23.358;2024-01-15T05:38:39;8.20;;;3.60;;
6394;SDS011;3230;42.588;23.358;2024-01-15T05:41:05;8.80;;;3.47;;
6394;SDS011;3230;42.588;23.358;2024-01-15T05:43:30;6.50;;;3.23;;
6394;SDS011;3230;42.588;23.358;2024-01-15T05:45:56;7.00;;;3.60;;
6394;SDS011;3230;42.588;23.358;2024-01-15T05:48:21;6.83;;;4.10;;
6394;SDS011;3230;42.588;23.358;2024-01-15T05:50:47;12.50;;;4.27;;
6394;SDS011;3230;42.588;23.358;2024-01-15T05:53:12;7.03;;;3.27;;
6394;SDS011;3230;42.588;23.358;2024-01-15T05:55:37;6.80;;;3.80;;
6394;SDS011;3230;42.588;23.358;2024-01-15T05:58:03;7.10;;;3.80;;
6394;SDS011;3230;42.588;23.358;2024-01-15T06:00:29;9.90;;;4.27;;
6394;SDS011;3230;42.588;23.358;2024-01-15T06:02:54;10.93;;;3.87;;
6394;SDS011;3230;42.588;23.358;2024-01-15T06:05:20;11.70;;;4.57;;
6394;SDS011;3230;42.588;23.358;2024-01-15T06:07:45;11.37;;;4.93;;
6394;SDS011;3230;42.588;23.358;2024-01-15T06:10:10;6.67;;;4.10;;
6394;SDS011;3230;42.588;23.358;2024-01-15T06:12:36;6.30;;;3.50;;
6394;SDS011;3230;42.588;23.358;2024-01-15T06:15:01;11.20;;;4.00;;
6394;SDS011;3230;42.588;23.358;2024-01-15T06:17:27;7.87;;;3.70;;
6394;SDS011;3230;42.588;23.358;2024-01-15T06:19:52;6.77;;;3.40;;
6394;SDS011;3230;42.588;23.358;2024-01-15T06:22:18;6.17;;;3.57;;
6394;SDS011;3230;42.588;23.358;2024-01-15T06:24:43;7.47;;;3.50;;
6394;SDS011;3230;42.588;23.358;2024-01-15T06:27:09;14.80;;;6.23;;
6394;SDS011;3230;42.588;23.358;2024-01-15T06:29:36;10.77;;;4.97;;
6394;SDS011;3230;42.588;23.358;2024-01-15T06:32:03;10.50;;;5.00;;
6394;SDS011;3230;42.588;23.358;2024-01-15T06:34:29;8.50;;;4.22;;
6394;SDS011;3230;42.588;23.358;2024-01-15T06:36:55;10.20;;;5.10;;
6394;SDS011;3230;42.588;23.358;2024-01-15T06:39:20;8.63;;;3.53;;
6394;SDS011;3230;42.588;23.358;2024-01-15T06:41:45;15.60;;;7.90;;
6394;SDS011;3230;42.588;23.358;2024-01-15T06:44:11;15.70;;;6.50;;
6394;SDS011;3230;42.588;23.358;2024-01-15T06:46:41;13.97;;;5.80;;
6394;SDS011;3230;42.588;23.358;2024-01-15T06:49:10;10.00;;;4.20;;
6394;SDS011;3230;42.588;23.358;2024-01-15T06:51:36;5.40;;;2.90;;
6394;SDS011;3230;42.588;23.358;2024-01-15T06:54:08;8.05;;;3.72;;
6394;SDS011;3230;42.588;23.358;2024-01-15T06:56:34;7.67;;;3.60;;
6394;SDS011;3230;42.588;23.358;2024-01-15T06:58:59;4.40;;;2.93;;
6394;SDS011;3230;42.588;23.358;2024-01-15T07:01:25;6.30;;;3.43;;
6394;SDS011;3230;42.588;23.358;2024-01-15T07:03:50;4.93;;;2.90;;
6394;SDS011;3230;42.588;23.358;2024-01-15T07:06:16;12.13;;;3.70;;
6394;SDS011;3230;42.588;23.358;2024-01-15T07:08:42;6.80;;;3.60;;
6394;SDS011;3230;42.588;23.358;2024-01-15T07:11:07;5.87;;;3.13;;
6394;SDS011;3230;42.588;23.358;2024-01-15T07:13:33;7.07;;;3.43;;
6394;SDS011;3230;42.588;23.358;2024-01-15T07:15:59;5.20;;;3.30;;
6394;SDS011;3230;42.588;23.358;2024-01-15T07:18:24;6.10;;;3.50;;
6394;SDS011;3230;42.588;23.358;2024-01-15T07:20:50;6.23;;;3.67;;
6394;SDS011;3230;42.588;23.358;2024-01-15T07:23:16;5.80;;;3.40;;
6394;SDS011;3230;42.588;23.358;2024-01-15T07:25:42;6.17;;;3.13;;
6394;SDS011;3230;42.588;23.358;2024-01-15T07:28:08;7.65;;;4.40;;
6394;SDS011;3230;42.588;23.358;2024-01-15T07:30:33;7.70;;;3.80;;
6394;SDS011;3230;42.588;23.358;2024-01-15T07:32:59;5.33;;;3.33;;
6394;SDS011;3230;42.588;23.358;2024-01-15T07:35:24;5.23;;;3.23;;
6394;SDS011;3230;42.588;23.358;2024-01-15T07:37:50;7.20;;;3.70;;
6394;SDS011;3230;42.588;23.358;2024-01-15T07:40:15;9.60;;;4.03;;
6394;SDS011;3230;42.588;23.358;2024-01-15T07:42:41;12.80;;;6.70;;
6394;SDS011;3230;42.588;23.358;2024-01-15T07:45:07;12.20;;;6.20;;
6394;SDS011;3230;42.588;23.358;2024-01-15T07:47:34;18.17;;;8.68;;
6394;SDS011;3230;42.588;23.358;2024-01-15T07:49:59;11.93;;;5.80;;
6394;SDS011;3230;42.588;23.358;2024-01-15T07:52:25;17.90;;;8.20;;
6394;SDS011;3230;42.588;23.358;2024-01-15T07:54:50;20.70;;;8.50;;
6394;SDS011;3230;42.588;23.358;2024-01-15T07:57:15;13.13;;;6.17;;
6394;SDS011;3230;42.588;23.358;2024-01-15T07:59:41;6.17;;;3.73;;
6394;SDS011;3230;42.588;23.358;2024-01-15T08:02:06;6.30;;;3.17;;
6394;SDS011;3230;42.588;23.358;2024-01-15T08:04:32;5.30;;;3.73;;
6394;SDS011;3230;42.588;23.358;2024-01-15T08:06:57;9.47;;;4.23;;
6394;SDS011;3230;42.588;23.358;2024-01-15T08:09:23;10.65;;;5.38;;
6394;SDS011;3230;42.588;23.358;2024-01-15T08:11:49;11.03;;;6.10;;
6394;SDS011;3230;42.588;23.358;2024-01-15T08:14:14;9.97;;;5.10;;
6394;SDS011;3230;42.588;23.358;2024-01-15T08:16:40;36.17;;;15.70;;
6394;SDS011;3230;42.588;23.358;2024-01-15T08:19:06;25.57;;;11.10;;
6394;SDS011;3230;42.588;23.358;2024-01-15T08:21:31;36.33;;;15.30;;
6394;SDS011;3230;42.588;23.358;2024-01-15T08:23:58;37.93;;;17.03;;
6394;SDS011;3230;42.588;23.358;2024-01-15T08:26:25;20.92;;;11.73;;
6394;SDS011;3230;42.588;23.358;2024-01-15T08:28:50;37.80;;;16.27;;
6394;SDS011;3230;42.588;23.358;2024-01-15T08:31:16;39.07;;;18.30;;
6394;SDS011;3230;42.588;23.358;2024-01-15T08:33:42;35.70;;;14.70;;
6394;SDS011;3230;42.588;23.358;2024-01-15T08:36:07;22.30;;;10.50;;
6394;SDS011;3230;42.588;23.358;2024-01-15T08:38:32;15.20;;;7.27;;
6394;SDS011;3230;42.588;23.358;2024-01-15T08:40:58;8.63;;;5.00;;
6394;SDS011;3230;42.588;23.358;2024-01-15T08:43:25;5.88;;;3.50;;
6394;SDS011;3230;42.588;23.358;2024-01-15T08:45:53;8.98;;;4.30;;
6394;SDS011;3230;42.588;23.358;2024-01-15T08:48:19;5.30;;;3.60;;
6394;SDS011;3230;42.588;23.358;2024-01-15T08:50:44;6.33;;;3.77;;
6394;SDS011;3230;42.588;23.358;2024-01-15T08:53:12;10.73;;;5.13;;
6394;SDS011;3230;42.588;23.358;2024-01-15T08:55:38;10.97;;;5.63;;
6394;SDS011;3230;42.588;23.358;2024-01-15T08:58:04;9.67;;;4.70;;
6394;SDS011;3230;42.588;23.358;2024-01-15T09:00:29;1.77;;;1.20;;
6394;SDS011;3230;42.588;23.358;2024-01-15T09:03:04;2.42;;;1.08;;
6394;SDS011;3230;42.588;23.358;2024-01-15T09:05:30;3.93;;;2.40;;
6394;SDS011;3230;42.588;23.358;2024-01-15T09:07:55;18.30;;;8.43;;
6394;SDS011;3230;42.588;23.358;2024-01-15T09:10:21;15.53;;;8.20;;
6394;SDS011;3230;42.588;23.358;2024-01-15T09:12:46;9.37;;;5.00;;
6394;SDS011;3230;42.588;23.358;2024-01-15T09:15:14;11.05;;;5.30;;
6394;SDS011;3230;42.588;23.358;2024-01-15T09:17:39;4.20;;;2.73;;
6394;SDS011;3230;42.588;23.358;2024-01-15T09:20:05;5.90;;;3.20;;
6394;SDS011;3230;42.588;23.358;2024-01-15T09:22:31;2.47;;;1.10;;
6394;SDS011;3230;42.588;23.358;2024-01-15T09:24:57;1.50;;;1.13;;
6394;SDS011;3230;42.588;23.358;2024-01-15T09:27:23;1.03;;;0.90;;
6394;SDS011;3230;42.588;23.358;2024-01-15T09:29:51;1.03;;;0.90;;
6394;SDS011;3230;42.588;23.358;2024-01-15T09:32:17;0.60;;;0.60;;
6394;SDS011;3230;42.588;23.358;2024-01-15T09:34:42;1.70;;;0.90;;
6394;SDS011;3230;42.588;23.358;2024-01-15T09:37:07;1.07;;;0.93;;
6394;SDS011;3230;42.588;23.358;2024-01-15T09:39:33;2.53;;;1.20;;
6394;SDS011;3230;42.588;23.358;2024-01-15T09:41:58;1.60;;;1.37;;
6394;SDS011;3230;42.588;23.358;2024-01-15T09:44:24;1.50;;;1.13;;
6394;SDS011;3230;42.588;23.358;2024-01-15T09:46:51;1.90;;;1.33;;
6394;SDS011;3230;42.588;23.358;2024-01-15T09:49:17;2.50;;;1.70;;
6394;SDS011;3230;42.588;23.358;2024-01-15T09:51:43;1.47;;;1.10;;
6394;SDS011;3230;42.588;23.358;2024-01-15T09:54:09;2.17;;;1.40;;
6394;SDS011;3230;42.588;23.358;2024-01-15T09:56:35;7.53;;;2.23;;
6394;SDS011;3230;42.588;23.358;2024-01-15T09:59:01;3.20;;;1.53;;
6394;SDS011;3230;42.588;23.358;2024-01-15T10:01:27;3.00;;;2.37;;
6394;SDS011;3230;42.588;23.358;2024-01-15T10:03:53;4.03;;;2.33;;
6394;SDS011;3230;42.588;23.358;2024-01-15T10:06:19;1.90;;;1.37;;
6394;SDS011;3230;42.588;23.358;2024-01-15T10:08:50;1.53;;;0.90;;
6394;SDS011;3230;42.588;23.358;2024-01-15T10:11:16;2.20;;;1.23;;
6394;SDS011;3230;42.588;23.358;2024-01-15T10:13:46;1.83;;;1.13;;
6394;SDS011;3230;42.588;23.358;2024-01-15T10:16:12;1.30;;;1.20;;
6394;SDS011;3230;42.588;23.358;2024-01-15T10:18:37;2.00;;;1.00;;
6394;SDS011;3230;42.588;23.358;2024-01-15T10:21:05;1.67;;;1.43;;
6394;SDS011;3230;42.588;23.358;2024-01-15T10:23:32;2.23;;;1.10;;
6394;SDS011;3230;42.588;23.358;2024-01-15T10:25:57;1.43;;;1.17;;
6394;SDS011;3230;42.588;23.358;2024-01-15T10:28:25;2.17;;;1.30;;
6394;SDS011;3230;42.588;23.358;2024-01-15T10:30:55;1.27;;;1.17;;
6394;SDS011;3230;42.588;23.358;2024-01-15T10:33:22;1.00;;;0.90;;
6394;SDS011;3230;42.588;23.358;2024-01-15T10:35:53;1.63;;;1.50;;
6394;SDS011;3230;42.588;23.358;2024-01-15T10:38:20;4.40;;;1.13;;
6394;SDS011;3230;42.588;23.358;2024-01-15T10:40:47;1.67;;;1.10;;
6394;SDS011;3230;42.588;23.358;2024-01-15T10:43:15;1.13;;;0.90;;
6394;SDS011;3230;42.588;23.358;2024-01-15T10:45:43;1.70;;;1.20;;
6394;SDS011;3230;42.588;23.358;2024-01-15T10:48:12;1.67;;;1.50;;
6394;SDS011;3230;42.588;23.358;2024-01-15T10:50:38;2.80;;;2.03;;
6394;SDS011;3230;42.588;23.358;2024-01-15T10:53:04;2.70;;;1.77;;
6394;SDS011;3230;42.588;23.358;2024-01-15T10:55:30;1.33;;;1.20;;
6394;SDS011;3230;42.588;23.358;2024-01-15T10:58:00;4.00;;;1.90;;
6394;SDS011;3230;42.588;23.358;2024-01-15T11:00:26;1.57;;;1.23;;
6394;SDS011;3230;42.588;23.358;2024-01-15T11:02:52;2.80;;;1.47;;
6394;SDS011;3230;42.588;23.358;2024-01-15T11:05:21;1.10;;;0.90;;
6394;SDS011;3230;42.588;23.358;2024-01-15T11:07:50;1.13;;;1.03;;
6394;SDS011;3230;42.588;23.358;2024-01-15T11:10:38;1.50;;;1.27;;
6394;SDS011;3230;42.588;23.358;2024-01-15T11:13:20;2.37;;;1.73;;
6394;SDS011;3230;42.588;23.358;2024-01-15T11:16:00;2.43;;;1.80;;
6394;SDS011;3230;42.588;23.358;2024-01-15T11:18:34;5.80;;;1.77;;
6394;SDS011;3230;42.588;23.358;2024-01-15T11:29:06;2.10;;;1.87;;
6394;SDS011;3230;42.588;23.358;2024-01-15T11:34:05;1.57;;;1.10;;
6394;SDS011;3230;42.588;23.358;2024-01-15T11:37:21;1.17;;;1.07;;
6394;SDS011;3230;42.588;23.358;2024-01-15T11:42:00;1.37;;;1.23;;
6394;SDS011;3230;42.588;23.358;2024-01-15T11:44:28;2.03;;;1.80;;
6394;SDS011;3230;42.588;23.358;2024-01-15T11:47:04;1.70;;;1.30;;
6394;SDS011;3230;42.588;23.358;2024-01-15T11:52:19;2.10;;;1.30;;
6394;SDS011;3230;42.588;23.358;2024-01-15T11:57:50;2.30;;;1.70;;
6394;SDS011;3230;42.588;23.358;2024-01-15T12:00:19;2.03;;;1.40;;
6394;SDS011;3230;42.588;23.358;2024-01-15T12:02:46;3.90;;;2.00;;
6394;SDS011;3230;42.588;23.358;2024-01-15T12:05:13;6.83;;;4.20;;
6394;SDS011;3230;42.588;23.358;2024-01-15T12:07:40;4.80;;;3.03;;
6394;SDS011;3230;42.588;23.358;2024-01-15T12:13:05;5.27;;;2.57;;
6394;SDS011;3230;42.588;23.358;2024-01-15T12:15:38;2.40;;;1.73;;
6394;SDS011;3230;42.588;23.358;2024-01-15T12:18:07;1.30;;;1.20;;
6394;SDS011;3230;42.588;23.358;2024-01-15T12:20:33;1.60;;;1.50;;
6394;SDS011;3230;42.588;23.358;2024-01-15T12:22:59;1.50;;;1.10;;
6394;SDS011;3230;42.588;23.358;2024-01-15T12:25:25;1.50;;;1.40;;
6394;SDS011;3230;42.588;23.358;2024-01-15T12:27:52;3.20;;;2.10;;
6394;SDS011;3230;42.588;23.358;2024-01-15T12:30:18;7.87;;;2.17;;
6394;SDS011;3230;42.588;23.358;2024-01-15T12:32:44;12.70;;;6.97;;
6394;SDS011;3230;42.588;23.358;2024-01-15T12:35:10;14.90;;;9.20;;
6394;SDS011;3230;42.588;23.358;2024-01-15T12:37:37;22.97;;;11.83;;
6394;SDS011;3230;42.588;23.358;2024-01-15T12:40:04;28.93;;;11.90;;
6394;SDS011;3230;42.588;23.358;2024-01-15T12:42:32;27.07;;;11.20;;
6394;SDS011;3230;42.588;23.358;2024-01-15T12:44:58;25.57;;;13.13;;
6394;SDS011;3230;42.588;23.358;2024-01-15T12:47:24;27.63;;;14.30;;
6394;SDS011;3230;42.588;23.358;2024-01-15T12:49:51;26.47;;;12.07;;
6394;SDS011;3230;42.588;23.358;2024-01-15T12:52:20;24.80;;;12.77;;
6394;SDS011;3230;42.588;23.358;2024-01-15T12:54:49;18.40;;;9.40;;
6394;SDS011;3230;42.588;23.358;2024-01-15T12:57:15;20.03;;;8.57;;
6394;SDS011;3230;42.588;23.358;2024-01-15T12:59:41;15.80;;;8.60;;
6394;SDS011;3230;42.588;23.358;2024-01-15T13:02:06;15.40;;;7.50;;
6394;SDS011;3230;42.588;23.358;2024-01-15T13:04:32;13.40;;;7.33;;
6394;SDS011;3230;42.588;23.358;2024-01-15T13:06:57;9.90;;;5.10;;
6394;SDS011;3230;42.588;23.358;2024-01-15T13:09:23;12.17;;;5.60;;
6394;SDS011;3230;42.588;23.358;2024-01-15T13:11:48;9.67;;;5.40;;
6394;SDS011;3230;42.588;23.358;2024-01-15T13:14:14;9.73;;;5.73;;
6394;SDS011;3230;42.588;23.358;2024-01-15T13:16:42;9.57;;;5.97;;
6394;SDS011;3230;42.588;23.358;2024-01-15T13:19:09;15.75;;;5.88;;
6394;SDS011;3230;42.588;23.358;2024-01-15T13:21:36;11.93;;;5.60;;
6394;SDS011;3230;42.588;23.358;2024-01-15T13:24:05;8.60;;;5.50;;
6394;SDS011;3230;42.588;23.358;2024-01-15T13:26:34;10.80;;;6.40;;
6394;SDS011;3230;42.588;23.358;2024-01-15T13:29:01;10.55;;;6.18;;
6394;SDS011;3230;42.588;23.358;2024-01-15T13:31:28;9.60;;;5.30;;
6394;SDS011;3230;42.588;23.358;2024-01-15T13:33:54;9.80;;;5.37;;
6394;SDS011;3230;42.588;23.358;2024-01-15T13:36:23;6.70;;;4.37;;
6394;SDS011;3230;42.588;23.358;2024-01-15T13:38:49;6.90;;;4.30;;
6394;SDS011;3230;42.588;23.358;2024-01-15T13:41:16;6.32;;;3.35;;
6394;SDS011;3230;42.588;23.358;2024-01-15T13:43:44;7.85;;;4.40;;
6394;SDS011;3230;42.588;23.358;2024-01-15T13:46:18;6.33;;;3.57;;
6394;SDS011;3230;42.588;23.358;2024-01-15T13:48:54;4.57;;;3.27;;
6394;SDS011;3230;42.588;23.358;2024-01-15T13:51:21;6.10;;;3.00;;
6394;SDS011;3230;42.588;23.358;2024-01-15T13:53:47;5.07;;;3.58;;
6394;SDS011;3230;42.588;23.358;2024-01-15T13:56:13;10.40;;;3.60;;
6394;SDS011;3230;42.588;23.358;2024-01-15T13:58:38;8.17;;;3.67;;
6394;SDS011;3230;42.588;23.358;2024-01-15T14:01:03;4.90;;;3.37;;
6394;SDS011;3230;42.588;23.358;2024-01-15T14:03:30;4.78;;;3.42;;
6394;SDS011;3230;42.588;23.358;2024-01-15T14:05:56;6.90;;;3.80;;
6394;SDS011;3230;42.588;23.358;2024-01-15T14:08:22;7.50;;;4.20;;
6394;SDS011;3230;42.588;23.358;2024-01-15T14:10:47;6.17;;;4.07;;
6394;SDS011;3230;42.588;23.358;2024-01-15T14:13:12;6.77;;;3.87;;
6394;SDS011;3230;42.588;23.358;2024-01-15T14:15:38;7.73;;;3.53;;
6394;SDS011;3230;42.588;23.358;2024-01-15T14:18:03;5.53;;;3.30;;
6394;SDS011;3230;42.588;23.358;2024-01-15T14:20:29;6.00;;;3.60;;
6394;SDS011;3230;42.588;23.358;2024-01-15T14:22:55;4.60;;;2.97;;
6394;SDS011;3230;42.588;23.358;2024-01-15T14:25:20;3.93;;;2.90;;
6394;SDS011;3230;42.588;23.358;2024-01-15T14:27:46;5.00;;;3.23;;
6394;SDS011;3230;42.588;23.358;2024-01-15T14:30:12;4.20;;;2.83;;
6394;SDS011;3230;42.588;23.358;2024-01-15T14:32:39;4.70;;;2.67;;
6394;SDS011;3230;42.588;23.358;2024-01-15T14:35:05;3.37;;;2.80;;
6394;SDS011;3230;42.588;23.358;2024-01-15T14:37:31;5.17;;;3.10;;
6394;SDS011;3230;42.588;23.358;2024-01-15T14:39:56;5.67;;;3.27;;
6394;SDS011;3230;42.588;23.358;2024-01-15T14:42:22;4.80;;;2.90;;
6394;SDS011;3230;42.588;23.358;2024-01-15T14:44:49;5.05;;;3.10;;
6394;SDS011;3230;42.588;23.358;2024-01-15T14:47:14;3.83;;;3.10;;
6394;SDS011;3230;42.588;23.358;2024-01-15T14:49:40;5.50;;;2.90;;
6394;SDS011;3230;42.588;23.358;2024-01-15T14:52:12;5.37;;;3.53;;
6394;SDS011;3230;42.588;23.358;2024-01-15T14:54:37;7.40;;;3.80;;
6394;SDS011;3230;42.588;23.358;2024-01-15T14:57:03;5.90;;;3.60;;
6394;SDS011;3230;42.588;23.358;2024-01-15T14:59:28;5.80;;;3.00;;
6394;SDS011;3230;42.588;23.358;2024-01-15T15:01:54;5.20;;;3.40;;
6394;SDS011;3230;42.588;23.358;2024-01-15T15:04:21;5.53;;;3.40;;
6394;SDS011;3230;42.588;23.358;2024-01-15T15:06:47;9.90;;;6.27;;
6394;SDS011;3230;42.588;23.358;2024-01-15T15:09:12;52.97;;;27.20;;
6394;SDS011;3230;42.588;23.358;2024-01-15T15:11:38;28.10;;;15.65;;